Arcola, Virginia
Current Conditions -  °F | °C
As of 12:52 AM on Monday 26 Jan 2015 (Local Time) from KIAD Reporting Station
Overcast Overcast  
Wind Chill: 42°   Ceiling: 4800
Heat Index: 42°   Visibility: 10mi
Dew Point: 32°   Wind: 3mph
Humidity: 67%   Direction: 100°E
Pressure: 29.82"   Gusts: NA
Location:  38.95°N, 77.53°W
Report Text: KIAD 260552Z 10003KT 10SM OVC048 06/00 A2982 RMK AO2 SLP098 T00560000 10067 20044 58005 $
Loading
Personal Weather Stations






























Interactive Weather Map New forecast layout! Learn more

10-Day Weather Forecast

Advertisements
Track Severe Weather on mobile